createdAt,value
2022-11-14T00:01:32.757Z,71.07
2022-11-14T00:05:17.830Z,71.30
2022-11-14T00:09:02.733Z,69.57
2022-11-14T00:12:47.824Z,68.20
2022-11-14T00:16:32.733Z,68.13
2022-11-14T00:20:18.859Z,70.03
2022-11-14T00:24:10.818Z,68.90
2022-11-14T00:27:49.793Z,82.57
2022-11-14T00:31:41.746Z,65.43
2022-11-14T00:35:19.809Z,65.70
2022-11-14T00:39:11.744Z,63.20
2022-11-14T00:42:49.880Z,67.50
2022-11-14T00:46:41.767Z,71.18
2022-11-14T00:50:20.817Z,70.82
2022-11-14T00:54:13.047Z,70.07
2022-11-14T00:57:51.836Z,68.88
2022-11-14T01:01:43.791Z,71.82
2022-11-14T01:05:23.155Z,74.50
2022-11-14T01:09:14.809Z,77.33
2022-11-14T01:12:53.854Z,77.55
2022-11-14T01:16:45.806Z,75.65
2022-11-14T01:20:24.814Z,73.03
2022-11-14T01:24:16.749Z,76.28
2022-11-14T01:27:54.849Z,67.95
2022-11-14T01:31:46.795Z,72.77
2022-11-14T01:35:24.817Z,70.20
2022-11-14T01:39:16.855Z,77.60
2022-11-14T01:43:22.896Z,78.00
2022-11-14T01:47:14.856Z,80.27
2022-11-14T01:50:59.848Z,77.38
2022-11-14T01:54:56.202Z,70.05
2022-11-14T01:58:35.843Z,70.73
2022-11-14T02:02:31.761Z,75.35
2022-11-14T02:06:12.870Z,82.47
2022-11-14T02:10:08.799Z,78.10
2022-11-14T02:13:46.859Z,73.85
2022-11-14T02:17:39.775Z,76.20
2022-11-14T02:21:24.931Z,76.47
2022-11-14T02:25:18.889Z,83.17
2022-11-14T02:28:57.888Z,74.30
2022-11-14T02:36:47.936Z,76.53
2022-11-14T02:40:39.798Z,86.72
2022-11-14T02:44:17.847Z,81.28
2022-11-14T02:48:09.806Z,73.78
2022-11-14T02:51:47.893Z,77.73
2022-11-14T02:55:40.358Z,85.20
2022-11-14T02:59:18.862Z,85.88
2022-11-14T03:03:10.784Z,86.20
2022-11-14T03:06:49.036Z,91.57
2022-11-14T03:10:40.809Z,84.68
2022-11-14T03:14:18.869Z,86.10
2022-11-14T03:18:10.889Z,76.82
2022-11-14T03:21:48.867Z,90.95
2022-11-14T03:25:40.809Z,76.72
2022-11-14T03:29:18.908Z,88.03
2022-11-14T03:33:10.826Z,94.18
2022-11-14T03:36:48.871Z,88.28
2022-11-14T03:40:40.828Z,73.17
2022-11-14T03:44:18.866Z,83.00
2022-11-14T03:48:12.857Z,82.65
2022-11-14T03:51:51.001Z,84.67
2022-11-14T03:55:43.149Z,88.25
2022-11-14T03:59:21.889Z,96.10
2022-11-14T04:03:13.870Z,85.30
2022-11-14T04:06:51.941Z,82.77
2022-11-14T04:10:43.848Z,90.75
2022-11-14T04:14:21.903Z,89.57
2022-11-14T04:18:13.850Z,93.80
2022-11-14T04:21:51.937Z,95.78
2022-11-14T04:25:43.853Z,98.45
2022-11-14T04:29:21.887Z,91.32
2022-11-14T04:33:13.874Z,94.63
2022-11-14T04:36:58.909Z,109.68
2022-11-14T04:40:54.946Z,111.47
2022-11-14T04:44:53.895Z,102.00
2022-11-14T04:48:45.867Z,92.25
2022-11-14T04:52:23.904Z,87.00
2022-11-14T04:56:16.407Z,95.67
2022-11-14T04:59:55.021Z,86.28
2022-11-14T05:03:47.030Z,90.55
2022-11-14T05:07:26.162Z,92.40
2022-11-14T05:11:29.142Z,87.83
2022-11-14T05:15:08.261Z,97.65
2022-11-14T05:19:00.878Z,99.03
2022-11-14T05:22:39.042Z,95.97
2022-11-14T05:26:30.899Z,92.93
2022-11-14T05:30:16.972Z,96.43
2022-11-14T05:34:01.903Z,95.77
2022-11-14T05:37:46.946Z,81.15
2022-11-14T05:41:31.886Z,79.47
2022-11-14T05:45:16.902Z,89.65
2022-11-14T05:49:01.872Z,79.70
2022-11-14T05:52:46.938Z,78.78
2022-11-14T05:56:32.288Z,86.13
2022-11-14T06:00:17.969Z,73.70
2022-11-14T06:04:02.951Z,102.53
2022-11-14T06:07:47.973Z,97.05
2022-11-14T06:11:40.878Z,94.77
2022-11-14T06:15:26.945Z,81.70
2022-11-14T06:19:11.910Z,90.70
2022-11-14T06:23:00.942Z,79.00
2022-11-14T06:26:45.966Z,96.03
2022-11-14T06:30:31.004Z,84.60
2022-11-14T06:34:17.931Z,88.47
2022-11-14T06:38:02.960Z,80.07
2022-11-14T06:41:47.908Z,83.55
2022-11-14T06:45:34.201Z,93.88
2022-11-14T06:49:18.930Z,86.37
2022-11-14T06:53:04.970Z,85.35
2022-11-14T06:56:50.159Z,83.30
2022-11-14T07:00:35.045Z,91.13
2022-11-14T07:04:19.933Z,90.77
2022-11-14T07:08:05.014Z,76.22
2022-11-14T07:11:56.989Z,78.78
2022-11-14T07:15:34.948Z,78.67
2022-11-14T07:19:26.996Z,77.20
2022-11-14T07:23:05.025Z,83.43
2022-11-14T07:26:56.912Z,77.97
2022-11-14T07:30:34.981Z,78.63
2022-11-14T07:34:26.905Z,71.28
2022-11-14T07:38:09.986Z,76.18
2022-11-14T07:42:01.936Z,66.30
2022-11-14T07:45:39.967Z,73.25
2022-11-14T07:49:31.901Z,72.72
2022-11-14T07:53:09.970Z,72.83
2022-11-14T07:57:02.278Z,72.93
2022-11-14T08:00:41.073Z,71.25
2022-11-14T08:04:32.942Z,74.23
2022-11-14T08:08:12.001Z,63.67
2022-11-14T08:12:03.941Z,62.50
2022-11-14T08:15:42.206Z,56.30
2022-11-14T08:19:34.019Z,60.43
2022-11-14T08:23:13.032Z,71.50
2022-11-14T08:27:04.972Z,56.50
2022-11-14T08:30:43.097Z,73.87
2022-11-14T08:34:36.012Z,64.13
2022-11-14T08:38:14.324Z,56.88
2022-11-14T08:42:07.950Z,67.43
2022-11-14T08:45:46.002Z,56.90
2022-11-14T08:49:37.939Z,59.80
2022-11-14T08:53:16.000Z,63.83
2022-11-14T08:57:08.229Z,52.67
2022-11-14T09:00:46.996Z,54.10
2022-11-14T09:04:39.002Z,58.58
2022-11-14T09:08:17.060Z,54.13
2022-11-14T09:12:08.955Z,56.05
2022-11-14T09:15:48.042Z,56.45
2022-11-14T09:19:39.980Z,53.70
2022-11-14T09:23:18.069Z,55.80
2022-11-14T09:27:09.941Z,49.92
2022-11-14T09:30:49.526Z,55.45
2022-11-14T09:34:41.034Z,49.17
2022-11-14T09:38:19.149Z,53.10
2022-11-14T09:42:38.988Z,47.53
2022-11-14T09:46:46.549Z,52.90
2022-11-14T09:50:44.002Z,49.60
2022-11-14T09:54:30.063Z,47.28
2022-11-14T09:58:26.596Z,52.05
2022-11-14T10:02:21.070Z,49.77
2022-11-14T10:06:16.004Z,46.45
2022-11-14T10:10:13.002Z,51.25
2022-11-14T10:14:43.022Z,47.57
2022-11-14T10:18:25.077Z,51.60
2022-11-14T10:22:47.990Z,44.53
2022-11-14T10:26:34.073Z,52.38
2022-11-14T10:30:26.982Z,49.73
2022-11-14T10:34:15.036Z,42.85
2022-11-14T10:38:15.005Z,46.03
2022-11-14T10:42:01.003Z,45.47
2022-11-14T10:46:10.013Z,51.78
2022-11-14T10:49:50.101Z,41.65
2022-11-14T10:54:01.043Z,39.80
2022-11-14T10:57:39.047Z,43.70
2022-11-14T11:01:47.431Z,43.38
2022-11-14T11:05:29.084Z,39.65
2022-11-14T11:09:52.062Z,43.00
2022-11-14T11:13:43.098Z,41.28
2022-11-14T11:17:40.140Z,45.25
2022-11-14T11:21:23.258Z,44.13
2022-11-14T11:25:29.996Z,42.63
2022-11-14T11:29:08.963Z,43.15
2022-11-14T11:33:01.045Z,49.50
2022-11-14T11:36:45.119Z,40.47
2022-11-14T11:40:37.021Z,40.40
2022-11-14T11:44:22.108Z,42.13
2022-11-14T11:48:41.025Z,46.10
2022-11-14T11:52:46.063Z,42.75
2022-11-14T11:56:39.012Z,37.75
2022-11-14T12:00:26.167Z,39.22
2022-11-14T12:04:18.157Z,40.10
2022-11-14T12:08:11.724Z,41.25
2022-11-14T12:12:18.055Z,42.33
2022-11-14T12:16:22.108Z,37.57
2022-11-14T12:20:32.059Z,38.57
2022-11-14T12:24:36.120Z,46.20
2022-11-14T12:29:13.045Z,36.97
2022-11-14T12:32:58.168Z,39.37
2022-11-14T12:36:52.132Z,43.83
2022-11-14T12:40:44.077Z,39.05
2022-11-14T12:44:35.187Z,36.10
2022-11-14T12:48:32.266Z,38.83
2022-11-14T12:52:49.072Z,38.83
2022-11-14T12:56:37.150Z,36.90
2022-11-14T13:00:23.063Z,36.45
2022-11-14T13:04:27.115Z,33.57
2022-11-14T13:08:38.488Z,34.70
2022-11-14T13:12:58.480Z,37.85
2022-11-14T13:17:01.182Z,35.47
2022-11-14T13:21:04.869Z,32.57
2022-11-14T13:25:05.101Z,37.83
2022-11-14T13:28:51.154Z,35.72
2022-11-14T13:32:47.116Z,31.70
2022-11-14T13:36:46.166Z,32.50
2022-11-14T13:41:00.117Z,30.43
2022-11-14T13:45:38.147Z,32.60
2022-11-14T13:49:30.066Z,33.15
2022-11-14T13:53:26.099Z,33.77
2022-11-14T13:57:27.110Z,32.43
2022-11-14T14:01:28.908Z,39.45
2022-11-14T14:05:17.088Z,32.55
2022-11-14T14:09:28.215Z,29.87
2022-11-14T14:13:18.176Z,38.53
2022-11-14T14:17:07.143Z,35.28
2022-11-14T14:20:56.106Z,35.45
2022-11-14T14:25:15.121Z,39.10
2022-11-14T14:29:25.132Z,39.43
2022-11-14T14:33:22.357Z,41.78
2022-11-14T14:37:07.146Z,43.63
2022-11-14T14:40:54.155Z,42.07
2022-11-14T14:44:44.120Z,38.72
2022-11-14T14:48:33.478Z,39.88
2022-11-14T14:52:38.102Z,36.35
2022-11-14T14:56:29.217Z,51.90
2022-11-14T15:00:24.192Z,52.17
2022-11-14T15:04:13.241Z,58.38
2022-11-14T15:08:02.137Z,47.40
2022-11-14T15:11:50.545Z,60.40
2022-11-14T15:15:37.225Z,53.35
2022-11-14T15:19:25.177Z,54.50
2022-11-14T15:23:32.127Z,81.57
2022-11-14T15:27:33.117Z,115.53
2022-11-14T15:31:29.168Z,122.10
2022-11-14T15:35:34.419Z,71.20
2022-11-14T15:39:35.156Z,65.85
2022-11-14T15:43:51.240Z,73.30
2022-11-14T15:47:47.132Z,94.65
2022-11-14T15:51:48.224Z,75.43
2022-11-14T15:55:33.155Z,101.43
2022-11-14T15:59:18.286Z,82.93
2022-11-14T16:03:04.140Z,79.70
2022-11-14T16:06:49.331Z,80.47
2022-11-14T16:10:35.150Z,71.65
2022-11-14T16:14:20.211Z,64.03
2022-11-14T16:18:05.545Z,62.03
2022-11-14T16:21:50.200Z,66.18
2022-11-14T16:25:37.168Z,55.53
2022-11-14T16:29:23.259Z,61.60
2022-11-14T16:33:08.157Z,61.47
2022-11-14T16:36:53.206Z,59.08
2022-11-14T16:40:38.181Z,70.50
2022-11-14T16:44:24.856Z,66.67
2022-11-14T16:48:10.165Z,68.85
2022-11-14T16:51:58.404Z,72.32
2022-11-14T16:55:43.230Z,62.03
2022-11-14T16:59:28.355Z,67.45
2022-11-14T17:03:13.177Z,63.30
2022-11-14T17:06:58.243Z,63.83
2022-11-14T17:10:48.258Z,62.57
2022-11-14T17:14:33.278Z,68.47
2022-11-14T17:18:18.423Z,66.38
2022-11-14T17:22:03.221Z,62.47
2022-11-14T17:25:48.235Z,67.43
2022-11-14T17:29:33.366Z,74.47
2022-11-14T17:33:25.176Z,70.27
2022-11-14T17:37:03.254Z,64.50
2022-11-14T17:40:55.287Z,71.60
2022-11-14T17:44:34.226Z,71.57
2022-11-14T17:48:26.188Z,64.63
2022-11-14T17:52:04.227Z,73.63
2022-11-14T17:56:06.330Z,69.13
2022-11-14T17:59:45.290Z,67.87
2022-11-14T18:03:37.197Z,59.50
2022-11-14T18:07:23.494Z,57.63
2022-11-14T18:11:09.211Z,73.47
2022-11-14T18:14:54.256Z,75.83
2022-11-14T18:18:40.451Z,71.50
2022-11-14T18:22:25.315Z,73.18
2022-11-14T18:26:21.204Z,70.03
2022-11-14T18:30:20.048Z,59.05
2022-11-14T18:34:12.234Z,63.17
2022-11-14T18:37:57.259Z,67.03
2022-11-14T18:41:42.281Z,70.35
2022-11-14T18:45:27.271Z,69.47
2022-11-14T18:49:12.217Z,67.93
2022-11-14T18:52:57.269Z,68.77
2022-11-14T18:56:42.234Z,64.43
2022-11-14T19:00:27.423Z,76.63
2022-11-14T19:04:15.274Z,63.53
2022-11-14T19:08:00.304Z,66.93
2022-11-14T19:12:03.226Z,70.43
2022-11-14T19:15:48.292Z,74.10
2022-11-14T19:19:33.642Z,66.35
2022-11-14T19:23:18.259Z,73.22
2022-11-14T19:27:10.322Z,67.80
2022-11-14T19:30:49.343Z,70.87
2022-11-14T19:34:41.264Z,73.78
2022-11-14T19:38:20.274Z,75.45
2022-11-14T19:42:12.273Z,64.47
2022-11-14T19:45:51.330Z,69.95
2022-11-14T19:49:43.259Z,63.42
2022-11-14T19:53:21.322Z,76.67
2022-11-14T19:57:13.240Z,68.43
2022-11-14T20:00:51.306Z,63.67
2022-11-14T20:04:43.271Z,73.55
2022-11-14T20:08:21.293Z,65.60
2022-11-14T20:12:13.245Z,67.65
2022-11-14T20:15:51.322Z,81.38
2022-11-14T20:19:43.567Z,76.33
2022-11-14T20:23:28.917Z,70.47
2022-11-14T20:27:14.319Z,75.50
2022-11-14T20:30:59.350Z,68.17
2022-11-14T20:34:44.262Z,66.90
2022-11-14T20:38:30.044Z,67.68
2022-11-14T20:42:15.252Z,75.40
2022-11-14T20:46:12.925Z,70.43
2022-11-14T20:49:58.274Z,74.40
2022-11-14T20:53:44.365Z,79.00
2022-11-14T20:57:29.280Z,73.20
2022-11-14T21:01:15.474Z,76.28
2022-11-14T21:05:07.338Z,69.55
2022-11-14T21:08:46.325Z,74.43
2022-11-14T21:12:38.337Z,71.60
2022-11-14T21:16:22.362Z,72.40
2022-11-14T21:20:14.687Z,76.18
2022-11-14T21:23:54.366Z,62.67
2022-11-14T21:27:46.327Z,69.40
2022-11-14T21:31:39.503Z,67.80
2022-11-14T21:35:31.275Z,73.87
2022-11-14T21:39:14.624Z,78.43
2022-11-14T21:43:07.336Z,74.95
2022-11-14T21:46:52.380Z,79.10
2022-11-14T21:50:39.419Z,67.93
2022-11-14T21:54:24.354Z,83.20
2022-11-14T21:58:09.330Z,71.47
2022-11-14T22:02:15.032Z,78.27
2022-11-14T22:06:03.335Z,73.63
2022-11-14T22:09:48.427Z,73.43
2022-11-14T22:13:36.338Z,78.57
2022-11-14T22:17:21.361Z,79.57
2022-11-14T22:21:09.521Z,78.32
2022-11-14T22:24:54.325Z,81.70
2022-11-14T22:28:39.312Z,71.37
2022-11-14T22:32:24.396Z,73.85
2022-11-14T22:36:10.399Z,73.35
2022-11-14T22:39:55.368Z,72.43
2022-11-14T22:43:40.395Z,82.95
2022-11-14T22:47:25.429Z,86.90
2022-11-14T22:51:17.311Z,74.70
2022-11-14T22:55:02.365Z,76.30
2022-11-14T22:58:48.301Z,75.10
2022-11-14T23:02:33.342Z,74.97
2022-11-14T23:06:20.292Z,83.20
2022-11-14T23:10:05.349Z,74.03
2022-11-14T23:13:54.295Z,75.45
2022-11-14T23:17:39.574Z,79.20
2022-11-14T23:21:27.568Z,76.72
2022-11-14T23:25:13.357Z,71.47
2022-11-14T23:28:58.366Z,79.57
2022-11-14T23:32:43.367Z,90.80
2022-11-14T23:36:28.342Z,82.75
2022-11-14T23:40:14.447Z,89.57
2022-11-14T23:43:59.308Z,86.90
2022-11-14T23:47:44.409Z,87.45
2022-11-14T23:51:36.324Z,117.20
2022-11-14T23:55:14.355Z,138.53
2022-11-14T23:59:06.365Z,194.70
